CFG3DC LGKR-EDDM
Flight info
| Callsign | CFG3DC |
|---|---|
| Flight time | 1h 41m |
| Altitude | 38000 |
| Route | OLGAT DCT ABADI DCT CRAYE DCT GISAM DCT ORAKA DCT SPL DCT ALIVO DCT PENEP DCT RASTA DCT REDBU Q112 NAPSA NAPSA1B |
| Aircraft | A20N/M-SDE2E3FGHIRWXY/LB1 |
Departure
| Time | 2026-05-07 17:06 |
|---|---|
| Airport | Corfu Ioannis Kapodistrias International Airport (LGKR) |
Arrival
| Time | 2026-05-07 18:48 |
|---|---|
| Airport | Munich Airport (EDDM) |
| Time | Latitude | Longitude | Altitude | Speed | Heading |
|---|---|---|---|---|---|
| 2026-05-07 16:46 | 39.60782 | 19.91320 | 20 ft | 0 kts | 80° |
| 2026-05-07 16:57 | 39.60781 | 19.91314 | 20 ft | 2 kts | 80° |
| 2026-05-07 16:58 | 39.60778 | 19.91295 | 20 ft | 2 kts | 79° |
| 2026-05-07 16:58 | 39.60775 | 19.91277 | 20 ft | 2 kts | 79° |
| 2026-05-07 16:58 | 39.60772 | 19.91257 | 20 ft | 2 kts | 78° |
| 2026-05-07 16:58 | 39.60769 | 19.91238 | 20 ft | 2 kts | 77° |
| 2026-05-07 16:59 | 39.60769 | 19.91219 | 20 ft | 2 kts | 108° |
| 2026-05-07 16:59 | 39.60776 | 19.91202 | 20 ft | 2 kts | 131° |
| 2026-05-07 16:59 | 39.60788 | 19.91190 | 20 ft | 2 kts | 156° |
| 2026-05-07 16:59 | 39.60802 | 19.91185 | 20 ft | 2 kts | 173° |
| 2026-05-07 17:00 | 39.60806 | 19.91184 | 20 ft | 0 kts | 169° |
| 2026-05-07 17:00 | 39.60807 | 19.91184 | 20 ft | 4 kts | 168° |
| 2026-05-07 17:00 | 39.60816 | 19.91182 | 20 ft | 0 kts | 168° |
| 2026-05-07 17:02 | 39.60794 | 19.91188 | 20 ft | 7 kts | 168° |
| 2026-05-07 17:02 | 39.60713 | 19.91208 | 19 ft | 15 kts | 168° |
| 2026-05-07 17:02 | 39.60603 | 19.91206 | 18 ft | 16 kts | 205° |
| 2026-05-07 17:03 | 39.60488 | 19.91149 | 17 ft | 18 kts | 186° |
| 2026-05-07 17:03 | 39.60347 | 19.91174 | 16 ft | 22 kts | 169° |
| 2026-05-07 17:03 | 39.60177 | 19.91218 | 14 ft | 27 kts | 168° |
| 2026-05-07 17:03 | 39.59972 | 19.91270 | 14 ft | 31 kts | 169° |
| 2026-05-07 17:04 | 39.59745 | 19.91329 | 15 ft | 35 kts | 168° |
| 2026-05-07 17:04 | 39.59497 | 19.91393 | 15 ft | 36 kts | 168° |
| 2026-05-07 17:04 | 39.59266 | 19.91452 | 15 ft | 25 kts | 171° |
| 2026-05-07 17:04 | 39.59159 | 19.91459 | 16 ft | 11 kts | 113° |
| 2026-05-07 17:05 | 39.59203 | 19.91470 | 15 ft | 7 kts | 339° |
| 2026-05-07 17:05 | 39.59214 | 19.91466 | 15 ft | 0 kts | 348° |
| 2026-05-07 17:05 | 39.59351 | 19.91430 | 15 ft | 55 kts | 348° |
| 2026-05-07 17:05 | 39.59977 | 19.91268 | 14 ft | 124 kts | 349° |
| 2026-05-07 17:06 | 39.61007 | 19.91002 | 139 ft | 166 kts | 349° |
| 2026-05-07 17:06 | 39.62158 | 19.90694 | 677 ft | 172 kts | 350° |
| 2026-05-07 17:06 | 39.63340 | 19.90382 | 1306 ft | 178 kts | 350° |
| 2026-05-07 17:06 | 39.64519 | 19.89948 | 1915 ft | 184 kts | 329° |
| 2026-05-07 17:07 | 39.65324 | 19.88648 | 2349 ft | 196 kts | 284° |
| 2026-05-07 17:07 | 39.65402 | 19.86827 | 2794 ft | 210 kts | 268° |
| 2026-05-07 17:07 | 39.65316 | 19.84866 | 3239 ft | 226 kts | 266° |
| 2026-05-07 17:07 | 39.65208 | 19.82777 | 3697 ft | 242 kts | 266° |
| 2026-05-07 17:08 | 39.65352 | 19.80599 | 4345 ft | 250 kts | 290° |
| 2026-05-07 17:08 | 39.66307 | 19.78668 | 4898 ft | 262 kts | 312° |
| 2026-05-07 17:08 | 39.67598 | 19.76954 | 5383 ft | 276 kts | 315° |
| 2026-05-07 17:08 | 39.68997 | 19.75182 | 5987 ft | 284 kts | 315° |
| 2026-05-07 17:09 | 39.70397 | 19.73375 | 6732 ft | 286 kts | 314° |
| 2026-05-07 17:09 | 39.71769 | 19.71546 | 7478 ft | 287 kts | 313° |
| 2026-05-07 17:09 | 39.73146 | 19.69682 | 8169 ft | 290 kts | 313° |
| 2026-05-07 17:09 | 39.74538 | 19.67778 | 8856 ft | 293 kts | 313° |
| 2026-05-07 17:10 | 39.75958 | 19.65835 | 9544 ft | 297 kts | 312° |
| 2026-05-07 17:10 | 39.77368 | 19.63896 | 10210 ft | 299 kts | 312° |
| 2026-05-07 17:10 | 39.78807 | 19.61912 | 10678 ft | 310 kts | 312° |
| 2026-05-07 17:10 | 39.80342 | 19.59801 | 10988 ft | 327 kts | 312° |
| 2026-05-07 17:11 | 39.81917 | 19.57635 | 11462 ft | 336 kts | 312° |
| 2026-05-07 17:11 | 39.83508 | 19.55448 | 12139 ft | 338 kts | 311° |
| 2026-05-07 17:11 | 39.85131 | 19.53214 | 12856 ft | 339 kts | 311° |
| 2026-05-07 17:11 | 39.86750 | 19.51024 | 13528 ft | 340 kts | 311° |
| 2026-05-07 17:12 | 39.88409 | 19.48807 | 14179 ft | 342 kts | 311° |
| 2026-05-07 17:12 | 39.90070 | 19.46590 | 14823 ft | 343 kts | 311° |
| 2026-05-07 17:12 | 39.91738 | 19.44354 | 15477 ft | 345 kts | 311° |
| 2026-05-07 17:12 | 39.93392 | 19.42133 | 16134 ft | 347 kts | 310° |
| 2026-05-07 17:13 | 39.95090 | 19.39849 | 16795 ft | 349 kts | 310° |
| 2026-05-07 17:13 | 39.96758 | 19.37601 | 17428 ft | 350 kts | 310° |
| 2026-05-07 17:13 | 39.98445 | 19.35327 | 18047 ft | 352 kts | 310° |
| 2026-05-07 17:13 | 40.00159 | 19.33008 | 18669 ft | 353 kts | 309° |
| 2026-05-07 17:14 | 40.01859 | 19.30701 | 19241 ft | 355 kts | 309° |
| 2026-05-07 17:14 | 40.03582 | 19.28363 | 19706 ft | 362 kts | 310° |
| 2026-05-07 17:14 | 40.05309 | 19.26022 | 20233 ft | 365 kts | 310° |
| 2026-05-07 17:14 | 40.07090 | 19.23611 | 20797 ft | 367 kts | 310° |
| 2026-05-07 17:15 | 40.08857 | 19.21218 | 21331 ft | 370 kts | 310° |
| 2026-05-07 17:15 | 40.10635 | 19.18810 | 21830 ft | 373 kts | 310° |
| 2026-05-07 17:15 | 40.12451 | 19.16365 | 22318 ft | 377 kts | 310° |
| 2026-05-07 17:15 | 40.14300 | 19.13872 | 22808 ft | 381 kts | 310° |
| 2026-05-07 17:16 | 40.16122 | 19.11407 | 23276 ft | 384 kts | 310° |
| 2026-05-07 17:16 | 40.17985 | 19.08878 | 23757 ft | 387 kts | 310° |
| 2026-05-07 17:16 | 40.19845 | 19.06348 | 24233 ft | 389 kts | 310° |
| 2026-05-07 17:16 | 40.21727 | 19.03788 | 24709 ft | 392 kts | 311° |
| 2026-05-07 17:17 | 40.23712 | 19.01364 | 25182 ft | 397 kts | 317° |
| 2026-05-07 17:17 | 40.25936 | 18.99187 | 25683 ft | 401 kts | 323° |
| 2026-05-07 17:17 | 40.28352 | 18.97303 | 26189 ft | 405 kts | 327° |
| 2026-05-07 17:17 | 40.30839 | 18.95552 | 26676 ft | 406 kts | 328° |
| 2026-05-07 17:18 | 40.33337 | 18.93824 | 27163 ft | 408 kts | 328° |
| 2026-05-07 17:18 | 40.35809 | 18.92108 | 27636 ft | 408 kts | 328° |
| 2026-05-07 17:18 | 40.38320 | 18.90365 | 28105 ft | 408 kts | 327° |
| 2026-05-07 17:18 | 40.40842 | 18.88611 | 28554 ft | 409 kts | 327° |
| 2026-05-07 17:19 | 40.43348 | 18.86860 | 28990 ft | 409 kts | 327° |
| 2026-05-07 17:19 | 40.45849 | 18.85106 | 29436 ft | 409 kts | 327° |
| 2026-05-07 17:19 | 40.48364 | 18.83344 | 29854 ft | 410 kts | 327° |
| 2026-05-07 17:19 | 40.50857 | 18.81598 | 30229 ft | 411 kts | 327° |
| 2026-05-07 17:20 | 40.53395 | 18.79813 | 30588 ft | 411 kts | 326° |
| 2026-05-07 17:20 | 40.55883 | 18.78060 | 30942 ft | 411 kts | 326° |
| 2026-05-07 17:20 | 40.58420 | 18.76277 | 31371 ft | 408 kts | 326° |
| 2026-05-07 17:20 | 40.60906 | 18.74537 | 31827 ft | 405 kts | 326° |
| 2026-05-07 17:21 | 40.63357 | 18.72808 | 32265 ft | 401 kts | 325° |
| 2026-05-07 17:21 | 40.65813 | 18.71076 | 32675 ft | 398 kts | 325° |
| 2026-05-07 17:21 | 40.68247 | 18.69356 | 33069 ft | 396 kts | 324° |
| 2026-05-07 17:21 | 40.70636 | 18.67664 | 33453 ft | 393 kts | 324° |
| 2026-05-07 17:22 | 40.73034 | 18.65964 | 33853 ft | 390 kts | 324° |
| 2026-05-07 17:22 | 40.75427 | 18.64277 | 34245 ft | 387 kts | 323° |
| 2026-05-07 17:22 | 40.77802 | 18.62641 | 34628 ft | 385 kts | 324° |
| 2026-05-07 17:22 | 40.80170 | 18.61038 | 35004 ft | 382 kts | 324° |
| 2026-05-07 17:23 | 40.82502 | 18.59463 | 35370 ft | 378 kts | 324° |
| 2026-05-07 17:23 | 40.84837 | 18.57881 | 35701 ft | 376 kts | 324° |
| 2026-05-07 17:23 | 40.87147 | 18.56310 | 36002 ft | 375 kts | 324° |
| 2026-05-07 17:23 | 40.89479 | 18.54728 | 36289 ft | 374 kts | 324° |
| 2026-05-07 17:24 | 40.91781 | 18.53168 | 36536 ft | 373 kts | 324° |
| 2026-05-07 17:24 | 40.94067 | 18.51613 | 36767 ft | 372 kts | 323° |
| 2026-05-07 17:24 | 40.96359 | 18.50054 | 36979 ft | 372 kts | 323° |
| 2026-05-07 17:24 | 40.98664 | 18.48475 | 37171 ft | 372 kts | 323° |
| 2026-05-07 17:25 | 41.00937 | 18.46915 | 37327 ft | 372 kts | 323° |
| 2026-05-07 17:25 | 41.03251 | 18.45326 | 37485 ft | 372 kts | 323° |
| 2026-05-07 17:25 | 41.05548 | 18.43751 | 37640 ft | 372 kts | 323° |
| 2026-05-07 17:25 | 41.07825 | 18.42190 | 37789 ft | 372 kts | 323° |
| 2026-05-07 17:26 | 41.10120 | 18.40618 | 37916 ft | 372 kts | 323° |
| 2026-05-07 17:26 | 41.12444 | 18.39032 | 38033 ft | 372 kts | 323° |
| 2026-05-07 17:26 | 41.17044 | 18.35893 | 38083 ft | 373 kts | 323° |
| 2026-05-07 17:27 | 41.21640 | 18.32734 | 38069 ft | 373 kts | 323° |
| 2026-05-07 17:27 | 41.26242 | 18.29552 | 38065 ft | 374 kts | 323° |
| 2026-05-07 17:28 | 41.30865 | 18.26359 | 38040 ft | 375 kts | 323° |
| 2026-05-07 17:28 | 41.35495 | 18.23160 | 38035 ft | 376 kts | 323° |
| 2026-05-07 17:29 | 41.40134 | 18.19954 | 38042 ft | 377 kts | 323° |
| 2026-05-07 17:29 | 41.44773 | 18.16740 | 38045 ft | 378 kts | 323° |
| 2026-05-07 17:30 | 41.49423 | 18.13463 | 38050 ft | 377 kts | 321° |
| 2026-05-07 17:30 | 41.53840 | 18.09760 | 38053 ft | 375 kts | 319° |
| 2026-05-07 17:31 | 41.58171 | 18.05928 | 38051 ft | 376 kts | 318° |
| 2026-05-07 17:31 | 41.62523 | 18.02065 | 38048 ft | 377 kts | 319° |
| 2026-05-07 17:32 | 41.66882 | 17.98192 | 38045 ft | 378 kts | 319° |
| 2026-05-07 17:32 | 41.71256 | 17.94299 | 38046 ft | 378 kts | 319° |
| 2026-05-07 17:33 | 41.75639 | 17.90390 | 38046 ft | 379 kts | 319° |
| 2026-05-07 17:33 | 41.80011 | 17.86486 | 38042 ft | 379 kts | 319° |
| 2026-05-07 17:34 | 41.84396 | 17.82561 | 38037 ft | 380 kts | 319° |
| 2026-05-07 17:34 | 41.88770 | 17.78641 | 38035 ft | 380 kts | 319° |
| 2026-05-07 17:35 | 41.93178 | 17.74686 | 38035 ft | 380 kts | 319° |
| 2026-05-07 17:35 | 41.97582 | 17.70752 | 38035 ft | 380 kts | 319° |
| 2026-05-07 17:36 | 42.01974 | 17.66826 | 38036 ft | 380 kts | 319° |
| 2026-05-07 17:36 | 42.06353 | 17.62905 | 38037 ft | 380 kts | 319° |
| 2026-05-07 17:37 | 42.10757 | 17.58952 | 38040 ft | 380 kts | 319° |
| 2026-05-07 17:37 | 42.15189 | 17.54993 | 38042 ft | 382 kts | 319° |
| 2026-05-07 17:38 | 42.19585 | 17.51046 | 38043 ft | 382 kts | 319° |
| 2026-05-07 17:38 | 42.24009 | 17.47071 | 38045 ft | 383 kts | 319° |
| 2026-05-07 17:39 | 42.28428 | 17.43075 | 38045 ft | 383 kts | 319° |
| 2026-05-07 17:39 | 42.32829 | 17.39087 | 38048 ft | 383 kts | 319° |
| 2026-05-07 17:40 | 42.37263 | 17.35071 | 38048 ft | 384 kts | 319° |
| 2026-05-07 17:40 | 42.41682 | 17.31056 | 38055 ft | 383 kts | 317° |
| 2026-05-07 17:41 | 42.46088 | 17.27011 | 38055 ft | 383 kts | 317° |
| 2026-05-07 17:41 | 42.50507 | 17.22963 | 38060 ft | 384 kts | 318° |
| 2026-05-07 17:42 | 42.54917 | 17.18950 | 38061 ft | 384 kts | 318° |
| 2026-05-07 17:42 | 42.59338 | 17.14892 | 38059 ft | 384 kts | 318° |
| 2026-05-07 17:43 | 42.63754 | 17.10834 | 38058 ft | 385 kts | 318° |
| 2026-05-07 17:43 | 42.68196 | 17.06748 | 38060 ft | 386 kts | 317° |
| 2026-05-07 17:44 | 42.72623 | 17.02652 | 38061 ft | 386 kts | 318° |
| 2026-05-07 17:44 | 42.77048 | 16.98569 | 38061 ft | 386 kts | 319° |
| 2026-05-07 17:45 | 42.81489 | 16.94481 | 38056 ft | 386 kts | 318° |
| 2026-05-07 17:45 | 42.85932 | 16.90360 | 38053 ft | 386 kts | 317° |
| 2026-05-07 17:46 | 42.90337 | 16.86248 | 38046 ft | 387 kts | 317° |
| 2026-05-07 17:46 | 42.94794 | 16.82092 | 38036 ft | 387 kts | 317° |
| 2026-05-07 17:47 | 42.99225 | 16.77960 | 38027 ft | 388 kts | 317° |
| 2026-05-07 17:47 | 43.03664 | 16.73815 | 38023 ft | 389 kts | 317° |
| 2026-05-07 17:48 | 43.08151 | 16.69619 | 38029 ft | 390 kts | 317° |
| 2026-05-07 17:48 | 43.12612 | 16.65453 | 38043 ft | 391 kts | 318° |
| 2026-05-07 17:49 | 43.17132 | 16.61237 | 38054 ft | 392 kts | 318° |
| 2026-05-07 17:49 | 43.21629 | 16.57018 | 38058 ft | 393 kts | 318° |
| 2026-05-07 17:50 | 43.26136 | 16.52776 | 38059 ft | 394 kts | 318° |
| 2026-05-07 17:50 | 43.30657 | 16.48511 | 38060 ft | 394 kts | 318° |
| 2026-05-07 17:51 | 43.35165 | 16.44247 | 38060 ft | 396 kts | 318° |
| 2026-05-07 17:51 | 43.39681 | 16.39967 | 38060 ft | 397 kts | 318° |
| 2026-05-07 17:52 | 43.44212 | 16.35667 | 38056 ft | 398 kts | 318° |
| 2026-05-07 17:52 | 43.48808 | 16.31335 | 38047 ft | 401 kts | 320° |
| 2026-05-07 17:53 | 43.53655 | 16.27466 | 38043 ft | 406 kts | 323° |
| 2026-05-07 17:53 | 43.58596 | 16.23784 | 38045 ft | 407 kts | 324° |
| 2026-05-07 17:54 | 43.63596 | 16.20059 | 38048 ft | 408 kts | 324° |
| 2026-05-07 17:54 | 43.68575 | 16.16340 | 38049 ft | 409 kts | 324° |
| 2026-05-07 17:55 | 43.73550 | 16.12617 | 38052 ft | 410 kts | 324° |
| 2026-05-07 17:55 | 43.78555 | 16.08865 | 38058 ft | 412 kts | 324° |
| 2026-05-07 17:56 | 43.83615 | 16.05058 | 38059 ft | 418 kts | 324° |
| 2026-05-07 17:56 | 43.88768 | 16.01176 | 38058 ft | 424 kts | 324° |
| 2026-05-07 17:57 | 43.93964 | 15.97256 | 38057 ft | 429 kts | 325° |
| 2026-05-07 17:57 | 43.99239 | 15.93269 | 38055 ft | 434 kts | 325° |
| 2026-05-07 17:58 | 44.04522 | 15.89270 | 38058 ft | 435 kts | 325° |
| 2026-05-07 17:58 | 44.09861 | 15.85220 | 38065 ft | 436 kts | 325° |
| 2026-05-07 17:59 | 44.15160 | 15.81212 | 37990 ft | 436 kts | 325° |
| 2026-05-07 17:59 | 44.20473 | 15.77184 | 37786 ft | 435 kts | 325° |
| 2026-05-07 18:00 | 44.23125 | 15.75164 | 37621 ft | 435 kts | 325° |
| 2026-05-07 18:00 | 44.25800 | 15.73125 | 37462 ft | 435 kts | 325° |
| 2026-05-07 18:00 | 44.31061 | 15.69105 | 37567 ft | 433 kts | 325° |
| 2026-05-07 18:01 | 44.33704 | 15.67083 | 37676 ft | 431 kts | 325° |
| 2026-05-07 18:01 | 44.36313 | 15.65082 | 37766 ft | 430 kts | 325° |
| 2026-05-07 18:01 | 44.41541 | 15.61065 | 37880 ft | 429 kts | 325° |
| 2026-05-07 18:02 | 44.49406 | 15.55003 | 37958 ft | 433 kts | 325° |
| 2026-05-07 18:03 | 44.54651 | 15.50954 | 37922 ft | 433 kts | 325° |
| 2026-05-07 18:03 | 44.59931 | 15.46866 | 37864 ft | 433 kts | 324° |
| 2026-05-07 18:04 | 44.65183 | 15.42792 | 37808 ft | 434 kts | 324° |
| 2026-05-07 18:04 | 44.70477 | 15.38675 | 37786 ft | 434 kts | 324° |
| 2026-05-07 18:05 | 44.75770 | 15.34552 | 37815 ft | 435 kts | 324° |
| 2026-05-07 18:05 | 44.81052 | 15.30403 | 37875 ft | 435 kts | 324° |
| 2026-05-07 18:06 | 44.86333 | 15.26255 | 37919 ft | 436 kts | 324° |
| 2026-05-07 18:06 | 44.91621 | 15.22103 | 37894 ft | 437 kts | 324° |
| 2026-05-07 18:07 | 44.96934 | 15.17928 | 37773 ft | 437 kts | 324° |
| 2026-05-07 18:07 | 45.02249 | 15.13745 | 37705 ft | 436 kts | 323° |
| 2026-05-07 18:08 | 45.07529 | 15.09581 | 37681 ft | 435 kts | 323° |
| 2026-05-07 18:08 | 45.12839 | 15.05390 | 37582 ft | 436 kts | 323° |
| 2026-05-07 18:08 | 45.15504 | 15.03294 | 37480 ft | 436 kts | 323° |
| 2026-05-07 18:09 | 45.18125 | 15.01227 | 37324 ft | 436 kts | 323° |
| 2026-05-07 18:09 | 45.20806 | 14.99106 | 37183 ft | 436 kts | 323° |
| 2026-05-07 18:09 | 45.23423 | 14.97031 | 37098 ft | 436 kts | 323° |
| 2026-05-07 18:10 | 45.28695 | 14.92839 | 37037 ft | 436 kts | 323° |
| 2026-05-07 18:10 | 45.33964 | 14.88640 | 37200 ft | 433 kts | 323° |
| 2026-05-07 18:10 | 45.36565 | 14.86563 | 37343 ft | 431 kts | 323° |
| 2026-05-07 18:11 | 45.39178 | 14.84475 | 37488 ft | 429 kts | 323° |
| 2026-05-07 18:11 | 45.41775 | 14.82395 | 37611 ft | 429 kts | 323° |
| 2026-05-07 18:11 | 45.44352 | 14.80328 | 37712 ft | 428 kts | 323° |
| 2026-05-07 18:12 | 45.49561 | 14.76143 | 37859 ft | 430 kts | 323° |
| 2026-05-07 18:12 | 45.54836 | 14.72099 | 37903 ft | 437 kts | 326° |
| 2026-05-07 18:13 | 45.60316 | 14.68181 | 37836 ft | 442 kts | 327° |
| 2026-05-07 18:13 | 45.65806 | 14.64263 | 37768 ft | 442 kts | 327° |
| 2026-05-07 18:14 | 45.71295 | 14.60328 | 37743 ft | 442 kts | 327° |
| 2026-05-07 18:14 | 45.76750 | 14.56404 | 37776 ft | 442 kts | 327° |
| 2026-05-07 18:15 | 45.82235 | 14.52448 | 37851 ft | 443 kts | 327° |
| 2026-05-07 18:15 | 45.87759 | 14.48453 | 37947 ft | 444 kts | 327° |
| 2026-05-07 18:16 | 45.93266 | 14.44462 | 37984 ft | 444 kts | 327° |
| 2026-05-07 18:16 | 45.98747 | 14.40480 | 37989 ft | 445 kts | 327° |
| 2026-05-07 18:17 | 46.04288 | 14.36445 | 37978 ft | 445 kts | 327° |
| 2026-05-07 18:17 | 46.09800 | 14.32412 | 37977 ft | 445 kts | 326° |
| 2026-05-07 18:18 | 46.15328 | 14.28501 | 37994 ft | 448 kts | 328° |
| 2026-05-07 18:18 | 46.21014 | 14.24770 | 38008 ft | 448 kts | 329° |
| 2026-05-07 18:19 | 46.26713 | 14.21037 | 38018 ft | 448 kts | 329° |
| 2026-05-07 18:19 | 46.32365 | 14.17316 | 38037 ft | 448 kts | 329° |
| 2026-05-07 18:20 | 46.38028 | 14.13577 | 38017 ft | 448 kts | 329° |
| 2026-05-07 18:20 | 46.43698 | 14.09822 | 37966 ft | 448 kts | 329° |
| 2026-05-07 18:21 | 46.49372 | 14.06056 | 37936 ft | 448 kts | 329° |
| 2026-05-07 18:21 | 46.54998 | 14.02313 | 37958 ft | 448 kts | 329° |
| 2026-05-07 18:22 | 46.60678 | 13.98525 | 37991 ft | 449 kts | 329° |
| 2026-05-07 18:22 | 46.66356 | 13.94730 | 37998 ft | 449 kts | 329° |
| 2026-05-07 18:23 | 46.72020 | 13.90937 | 37984 ft | 449 kts | 329° |
| 2026-05-07 18:23 | 46.77714 | 13.87108 | 37950 ft | 450 kts | 329° |
| 2026-05-07 18:24 | 46.83371 | 13.83298 | 37850 ft | 450 kts | 329° |
| 2026-05-07 18:24 | 46.89035 | 13.79476 | 37885 ft | 450 kts | 329° |
| 2026-05-07 18:24 | 46.91859 | 13.77569 | 37994 ft | 449 kts | 329° |
| 2026-05-07 18:25 | 46.94682 | 13.75660 | 38099 ft | 448 kts | 329° |
| 2026-05-07 18:25 | 47.00367 | 13.71807 | 38173 ft | 450 kts | 329° |
| 2026-05-07 18:26 | 47.06030 | 13.67959 | 38144 ft | 451 kts | 329° |
| 2026-05-07 18:26 | 47.11740 | 13.64075 | 38202 ft | 452 kts | 329° |
| 2026-05-07 18:27 | 47.17324 | 13.60297 | 38129 ft | 438 kts | 329° |
| 2026-05-07 18:27 | 47.20086 | 13.58415 | 37937 ft | 437 kts | 329° |
| 2026-05-07 18:27 | 47.22843 | 13.56529 | 37407 ft | 440 kts | 329° |
| 2026-05-07 18:27 | 47.25616 | 13.54625 | 36718 ft | 446 kts | 329° |
| 2026-05-07 18:28 | 47.28438 | 13.52685 | 36071 ft | 449 kts | 329° |
| 2026-05-07 18:28 | 47.31249 | 13.50755 | 35568 ft | 447 kts | 329° |
| 2026-05-07 18:28 | 47.34039 | 13.48838 | 35065 ft | 446 kts | 329° |
| 2026-05-07 18:28 | 47.36856 | 13.46899 | 34524 ft | 445 kts | 329° |
| 2026-05-07 18:29 | 47.39639 | 13.44980 | 33952 ft | 445 kts | 330° |
| 2026-05-07 18:29 | 47.42407 | 13.43073 | 33223 ft | 443 kts | 330° |
| 2026-05-07 18:29 | 47.45172 | 13.41133 | 32302 ft | 442 kts | 328° |
| 2026-05-07 18:29 | 47.47849 | 13.38998 | 31282 ft | 441 kts | 324° |
| 2026-05-07 18:30 | 47.50441 | 13.36612 | 30184 ft | 440 kts | 321° |
| 2026-05-07 18:30 | 47.52918 | 13.33996 | 29230 ft | 435 kts | 317° |
| 2026-05-07 18:30 | 47.55222 | 13.31272 | 28709 ft | 425 kts | 315° |
| 2026-05-07 18:30 | 47.57493 | 13.28509 | 28070 ft | 424 kts | 315° |
| 2026-05-07 18:31 | 47.59784 | 13.25706 | 27301 ft | 425 kts | 316° |
| 2026-05-07 18:31 | 47.62046 | 13.22940 | 26723 ft | 426 kts | 316° |
| 2026-05-07 18:31 | 47.64336 | 13.20142 | 26244 ft | 425 kts | 317° |
| 2026-05-07 18:31 | 47.66605 | 13.17373 | 25820 ft | 423 kts | 317° |
| 2026-05-07 18:32 | 47.68857 | 13.14627 | 25465 ft | 420 kts | 317° |
| 2026-05-07 18:32 | 47.71094 | 13.11899 | 25069 ft | 418 kts | 317° |
| 2026-05-07 18:32 | 47.73326 | 13.09173 | 24627 ft | 415 kts | 317° |
| 2026-05-07 18:32 | 47.75552 | 13.06450 | 24168 ft | 412 kts | 317° |
| 2026-05-07 18:33 | 47.77752 | 13.03757 | 23707 ft | 409 kts | 317° |
| 2026-05-07 18:33 | 47.79930 | 13.01087 | 23240 ft | 406 kts | 318° |
| 2026-05-07 18:33 | 47.82137 | 12.98566 | 22766 ft | 403 kts | 322° |
| 2026-05-07 18:33 | 47.84462 | 12.96225 | 22283 ft | 399 kts | 324° |
| 2026-05-07 18:34 | 47.86747 | 12.93983 | 21805 ft | 395 kts | 324° |
| 2026-05-07 18:34 | 47.89046 | 12.91739 | 21322 ft | 391 kts | 324° |
| 2026-05-07 18:34 | 47.91295 | 12.89549 | 20847 ft | 388 kts | 324° |
| 2026-05-07 18:34 | 47.93540 | 12.87364 | 20369 ft | 384 kts | 324° |
| 2026-05-07 18:35 | 47.95774 | 12.85193 | 19789 ft | 383 kts | 324° |
| 2026-05-07 18:35 | 47.97972 | 12.83056 | 19203 ft | 382 kts | 324° |
| 2026-05-07 18:35 | 48.00215 | 12.80878 | 18604 ft | 380 kts | 324° |
| 2026-05-07 18:35 | 48.02411 | 12.78744 | 18012 ft | 379 kts | 324° |
| 2026-05-07 18:36 | 48.04618 | 12.76601 | 17408 ft | 377 kts | 324° |
| 2026-05-07 18:36 | 48.06797 | 12.74482 | 16811 ft | 375 kts | 324° |
| 2026-05-07 18:36 | 48.08978 | 12.72361 | 16207 ft | 372 kts | 324° |
| 2026-05-07 18:36 | 48.11106 | 12.70294 | 15578 ft | 361 kts | 324° |
| 2026-05-07 18:37 | 48.13063 | 12.68065 | 14936 ft | 349 kts | 317° |
| 2026-05-07 18:37 | 48.14872 | 12.65644 | 14284 ft | 347 kts | 315° |
| 2026-05-07 18:37 | 48.16629 | 12.63217 | 13641 ft | 345 kts | 315° |
| 2026-05-07 18:37 | 48.18387 | 12.60770 | 12993 ft | 344 kts | 315° |
| 2026-05-07 18:38 | 48.20128 | 12.58347 | 12351 ft | 342 kts | 315° |
| 2026-05-07 18:38 | 48.21846 | 12.55957 | 11644 ft | 336 kts | 315° |
| 2026-05-07 18:38 | 48.23533 | 12.53614 | 10878 ft | 326 kts | 315° |
| 2026-05-07 18:38 | 48.25160 | 12.51356 | 10116 ft | 318 kts | 315° |
| 2026-05-07 18:39 | 48.26760 | 12.49142 | 9396 ft | 308 kts | 315° |
| 2026-05-07 18:39 | 48.28301 | 12.47013 | 8728 ft | 297 kts | 315° |
| 2026-05-07 18:39 | 48.29798 | 12.44950 | 8065 ft | 288 kts | 315° |
| 2026-05-07 18:39 | 48.31251 | 12.42946 | 7358 ft | 282 kts | 315° |
| 2026-05-07 18:40 | 48.32659 | 12.41003 | 6637 ft | 279 kts | 315° |
| 2026-05-07 18:40 | 48.34067 | 12.39030 | 5936 ft | 276 kts | 315° |
| 2026-05-07 18:40 | 48.35397 | 12.36998 | 5441 ft | 271 kts | 304° |
| 2026-05-07 18:40 | 48.36177 | 12.34517 | 5183 ft | 261 kts | 288° |
| 2026-05-07 18:41 | 48.36700 | 12.31899 | 5014 ft | 261 kts | 285° |
| 2026-05-07 18:41 | 48.37130 | 12.29188 | 5000 ft | 263 kts | 280° |
| 2026-05-07 18:41 | 48.37387 | 12.26455 | 4998 ft | 264 kts | 277° |
| 2026-05-07 18:41 | 48.37550 | 12.23710 | 5001 ft | 264 kts | 271° |
| 2026-05-07 18:42 | 48.37508 | 12.20935 | 5012 ft | 264 kts | 268° |
| 2026-05-07 18:42 | 48.37405 | 12.18227 | 5008 ft | 254 kts | 266° |
| 2026-05-07 18:42 | 48.37252 | 12.15654 | 5008 ft | 239 kts | 264° |
| 2026-05-07 18:42 | 48.37078 | 12.13232 | 5004 ft | 228 kts | 264° |
| 2026-05-07 18:43 | 48.36894 | 12.10894 | 4994 ft | 224 kts | 263° |
| 2026-05-07 18:43 | 48.36711 | 12.08641 | 4977 ft | 209 kts | 263° |
| 2026-05-07 18:43 | 48.36536 | 12.06498 | 4872 ft | 206 kts | 263° |
| 2026-05-07 18:43 | 48.36363 | 12.04373 | 4629 ft | 203 kts | 263° |
| 2026-05-07 18:44 | 48.36193 | 12.02288 | 4364 ft | 199 kts | 264° |
| 2026-05-07 18:44 | 48.36037 | 12.00297 | 4172 ft | 190 kts | 264° |
| 2026-05-07 18:44 | 48.35883 | 11.98341 | 3871 ft | 182 kts | 264° |
| 2026-05-07 18:44 | 48.35738 | 11.96506 | 3587 ft | 170 kts | 264° |
| 2026-05-07 18:45 | 48.35608 | 11.94797 | 3301 ft | 161 kts | 264° |
| 2026-05-07 18:45 | 48.35482 | 11.93197 | 3132 ft | 148 kts | 265° |
| 2026-05-07 18:45 | 48.35359 | 11.91698 | 2933 ft | 144 kts | 265° |
| 2026-05-07 18:45 | 48.35246 | 11.90214 | 2749 ft | 143 kts | 266° |
| 2026-05-07 18:46 | 48.35136 | 11.88740 | 2556 ft | 142 kts | 265° |
| 2026-05-07 18:46 | 48.35017 | 11.87260 | 2372 ft | 142 kts | 265° |
| 2026-05-07 18:46 | 48.34894 | 11.85793 | 2178 ft | 141 kts | 264° |
| 2026-05-07 18:46 | 48.34772 | 11.84332 | 2003 ft | 142 kts | 264° |
| 2026-05-07 18:47 | 48.34660 | 11.82864 | 1819 ft | 141 kts | 265° |
| 2026-05-07 18:47 | 48.34549 | 11.81388 | 1632 ft | 141 kts | 265° |
| 2026-05-07 18:47 | 48.34439 | 11.79941 | 1479 ft | 138 kts | 265° |
| 2026-05-07 18:47 | 48.34345 | 11.78687 | 1479 ft | 97 kts | 263° |
| 2026-05-07 18:48 | 48.34287 | 11.77932 | 1482 ft | 49 kts | 264° |
| 2026-05-07 18:48 | 48.34253 | 11.77471 | 1483 ft | 37 kts | 268° |
| 2026-05-07 18:48 | 48.34302 | 11.77114 | 1484 ft | 33 kts | 291° |
| 2026-05-07 18:48 | 48.34380 | 11.76836 | 1484 ft | 18 kts | 293° |
| 2026-05-07 18:49 | 48.34399 | 11.76775 | 1485 ft | 0 kts | 297° |
| 2026-05-07 18:51 | 48.34405 | 11.76763 | 1485 ft | 5 kts | 318° |
| 2026-05-07 18:51 | 48.34465 | 11.76711 | 1484 ft | 14 kts | 341° |
| 2026-05-07 18:52 | 48.34565 | 11.76719 | 1484 ft | 15 kts | 57° |
| 2026-05-07 18:52 | 48.34584 | 11.76880 | 1484 ft | 15 kts | 84° |
| 2026-05-07 18:52 | 48.34597 | 11.77055 | 1483 ft | 18 kts | 84° |
| 2026-05-07 18:52 | 48.34613 | 11.77265 | 1483 ft | 18 kts | 83° |
| 2026-05-07 18:53 | 48.34625 | 11.77409 | 1483 ft | 13 kts | 83° |
| 2026-05-07 18:53 | 48.34636 | 11.77558 | 1482 ft | 14 kts | 84° |
| 2026-05-07 18:53 | 48.34649 | 11.77717 | 1481 ft | 15 kts | 84° |
| 2026-05-07 18:53 | 48.34661 | 11.77864 | 1481 ft | 10 kts | 66° |
| 2026-05-07 18:54 | 48.34727 | 11.77890 | 1481 ft | 10 kts | 353° |
| 2026-05-07 18:54 | 48.34776 | 11.77881 | 1481 ft | 0 kts | 354° |
| 2026-05-07 18:56 | 48.34784 | 11.77880 | 1481 ft | 3 kts | 354° |
| 2026-05-07 18:57 | 48.34824 | 11.77878 | 1481 ft | 8 kts | 4° |
| 2026-05-07 18:57 | 48.34890 | 11.77895 | 1481 ft | 10 kts | 6° |
| 2026-05-07 18:57 | 48.34966 | 11.77885 | 1481 ft | 11 kts | 353° |
| 2026-05-07 18:57 | 48.35048 | 11.77872 | 1480 ft | 12 kts | 354° |
| 2026-05-07 18:58 | 48.35136 | 11.77856 | 1480 ft | 13 kts | 354° |
| 2026-05-07 18:58 | 48.35206 | 11.77844 | 1480 ft | 5 kts | 354° |
| 2026-05-07 18:58 | 48.35229 | 11.77811 | 1479 ft | 6 kts | 277° |
| 2026-05-07 18:58 | 48.35225 | 11.77739 | 1479 ft | 7 kts | 264° |
| 2026-05-07 18:59 | 48.35223 | 11.77705 | 1479 ft | 0 kts | 264° |